Time;durP1;ratioP1;P1;durP2;ratioP2;P2;SDS_P1;SDS_P2;PMS_P1;PMS_P2;Temp;Humidity;BMP_temperature;BMP_pressure;BME280_temperature;BME280_humidity;BME280_pressure;Samples;Min_cycle;Max_cycle;Signal;HPM_P1;HPM_P2
2020/12/01 00:01:51;;;;;;;58.00;24.73;;;3.30;97.40;;;;;;5060552;28;20042;-67
2020/12/01 00:04:18;;;;;;;53.17;24.75;;;3.30;97.40;;;;;;5053740;28;20024;-65
2020/12/01 00:06:43;;;;;;;52.35;23.73;;;3.30;97.40;;;;;;5051760;28;20028;-67
2020/12/01 00:09:09;;;;;;;51.50;25.02;;;3.30;97.40;;;;;;5052534;28;20082;-66
2020/12/01 00:11:36;;;;;;;57.22;25.50;;;3.30;97.40;;;;;;5048644;28;20045;-67
2020/12/01 00:14:02;;;;;;;55.45;25.13;;;3.30;97.40;;;;;;5051184;28;20028;-67
2020/12/01 00:16:27;;;;;;;56.70;24.45;;;3.30;97.40;;;;;;5060336;28;20029;-67
2020/12/01 00:18:53;;;;;;;55.63;24.95;;;3.30;97.40;;;;;;5051991;28;20123;-67
2020/12/01 00:21:20;;;;;;;54.22;24.73;;;3.30;97.40;;;;;;5055836;28;20671;-66
2020/12/01 00:23:46;;;;;;;56.92;23.73;;;3.40;97.50;;;;;;5051477;28;20040;-67
2020/12/01 00:26:21;;;;;;;52.78;25.33;;;3.30;97.50;;;;;;5051443;28;20056;-66
2020/12/01 00:28:48;;;;;;;55.75;24.35;;;3.30;97.50;;;;;;5050415;28;20493;-67
2020/12/01 00:31:16;;;;;;;54.80;24.17;;;3.30;97.50;;;;;;5053868;28;20028;-67
2020/12/01 00:33:42;;;;;;;56.30;24.88;;;3.30;97.50;;;;;;5048350;28;20024;-65
2020/12/01 00:36:08;;;;;;;61.78;25.73;;;3.30;97.60;;;;;;5057107;28;20028;-68
2020/12/01 00:38:34;;;;;;;51.35;24.30;;;3.30;97.60;;;;;;5052298;28;20474;-66
2020/12/01 00:40:59;;;;;;;54.88;23.38;;;3.30;97.60;;;;;;5061024;28;20574;-67
2020/12/01 00:43:25;;;;;;;52.33;24.05;;;3.30;97.60;;;;;;5037726;28;20029;-66
2020/12/01 00:45:51;;;;;;;50.80;23.63;;;3.30;97.60;;;;;;5031639;28;20020;-66
2020/12/01 00:48:17;;;;;;;50.10;23.40;;;3.30;97.60;;;;;;5030145;28;20033;-67
2020/12/01 00:50:44;;;;;;;51.67;24.30;;;3.30;97.50;;;;;;5031807;28;20027;-68
2020/12/01 00:53:11;;;;;;;52.60;24.00;;;3.30;97.50;;;;;;5030924;28;20094;-68
2020/12/01 00:55:36;;;;;;;45.80;22.70;;;3.30;97.50;;;;;;5033272;28;20035;-68
2020/12/01 00:58:03;;;;;;;57.28;23.80;;;3.30;97.50;;;;;;5035675;28;20025;-68
2020/12/01 01:00:30;;;;;;;55.92;24.13;;;3.30;97.50;;;;;;5052180;28;20032;-68
2020/12/01 01:02:56;;;;;;;51.28;22.73;;;3.30;97.60;;;;;;5056410;28;20029;-68
2020/12/01 01:05:22;;;;;;;44.60;23.35;;;3.30;97.50;;;;;;5060117;28;20040;-68
2020/12/01 01:07:48;;;;;;;52.22;23.80;;;3.30;97.50;;;;;;5061913;28;20340;-67
2020/12/01 01:10:20;;;;;;;50.10;24.30;;;3.30;97.50;;;;;;5049729;28;20028;-67
2020/12/01 01:12:45;;;;;;;46.30;23.17;;;3.30;97.60;;;;;;5051400;28;20058;-67
2020/12/01 01:15:12;;;;;;;45.33;23.08;;;3.30;97.60;;;;;;5033960;28;20489;-67
2020/12/01 01:17:38;;;;;;;50.38;22.92;;;3.30;97.60;;;;;;5035379;28;20266;-67
2020/12/01 01:20:05;;;;;;;49.95;22.55;;;3.30;97.60;;;;;;5034380;28;20020;-67
2020/12/01 01:22:31;;;;;;;43.88;22.65;;;3.30;97.60;;;;;;5030778;28;20036;-66
2020/12/01 01:24:57;;;;;;;48.78;22.92;;;3.30;97.60;;;;;;5032158;28;20024;-67
2020/12/01 01:27:22;;;;;;;55.63;24.05;;;3.30;97.60;;;;;;5034913;28;20293;-66
2020/12/01 01:29:48;;;;;;;47.50;23.73;;;3.30;97.60;;;;;;5035347;28;20437;-67
2020/12/01 01:32:13;;;;;;;51.60;24.27;;;3.30;97.60;;;;;;5034035;28;20035;-68
2020/12/01 01:34:39;;;;;;;54.22;24.00;;;3.30;97.60;;;;;;5036390;28;20443;-66
2020/12/01 01:37:05;;;;;;;55.20;24.20;;;3.30;97.60;;;;;;5034124;28;20143;-66
2020/12/01 01:39:30;;;;;;;50.67;24.02;;;3.30;97.60;;;;;;5034515;28;20135;-67
2020/12/01 01:41:56;;;;;;;48.67;23.75;;;3.30;97.60;;;;;;5033701;28;20058;-67
2020/12/01 01:44:29;;;;;;;52.33;22.17;;;3.30;97.50;;;;;;5036163;28;20029;-68
2020/12/01 01:47:04;;;;;;;48.42;23.33;;;3.30;97.50;;;;;;5033904;28;20207;-69
2020/12/01 01:49:39;;;;;;;56.33;24.30;;;3.40;97.50;;;;;;5035007;28;20059;-67
2020/12/01 01:52:14;;;;;;;47.72;23.02;;;3.40;97.50;;;;;;5033116;28;20033;-65
2020/12/01 01:54:40;;;;;;;55.90;24.85;;;3.40;97.50;;;;;;5031522;28;20369;-65
2020/12/01 01:57:07;;;;;;;50.53;23.48;;;3.40;97.50;;;;;;5033321;28;20037;-65
2020/12/01 01:59:34;;;;;;;48.15;23.45;;;3.40;97.50;;;;;;5035877;28;20029;-68
2020/12/01 02:02:01;;;;;;;58.65;25.20;;;3.30;97.50;;;;;;5045839;28;20031;-67
2020/12/01 02:04:29;;;;;;;54.75;24.60;;;3.30;97.60;;;;;;5064752;28;20088;-67
2020/12/01 02:07:00;;;;;;;51.67;23.85;;;3.40;97.60;;;;;;5052276;28;20074;-67
2020/12/01 02:09:55;;;;;;;50.42;23.48;;;3.40;97.60;;;;;;5063858;28;20036;-67
2020/12/01 02:12:22;;;;;;;55.92;24.38;;;3.30;97.60;;;;;;5047271;28;20108;-68
2020/12/01 02:14:55;;;;;;;49.85;22.65;;;3.40;97.60;;;;;;5059157;28;20021;-67
2020/12/01 02:17:23;;;;;;;48.28;22.50;;;3.30;97.60;;;;;;5057997;28;20480;-67
2020/12/01 02:19:51;;;;;;;50.70;23.10;;;3.30;97.60;;;;;;5065493;28;20028;-67
2020/12/01 02:22:20;;;;;;;47.22;22.48;;;3.30;97.60;;;;;;5055019;28;20106;-67
2020/12/01 02:24:47;;;;;;;48.03;21.95;;;3.30;97.60;;;;;;5046242;28;20503;-66
2020/12/01 02:27:15;;;;;;;51.53;21.67;;;3.30;97.70;;;;;;5055405;28;20037;-67
2020/12/01 02:29:44;;;;;;;48.90;21.17;;;3.30;97.70;;;;;;5046716;28;20037;-66
2020/12/01 02:32:10;;;;;;;48.10;20.35;;;3.30;97.70;;;;;;5058069;28;20071;-66
2020/12/01 02:34:44;;;;;;;49.85;22.25;;;3.40;97.70;;;;;;5061737;28;20101;-66
2020/12/01 02:37:16;;;;;;;47.97;21.60;;;3.40;97.70;;;;;;5059278;28;20038;-66
2020/12/01 02:39:42;;;;;;;46.78;22.00;;;3.40;97.70;;;;;;5046108;28;20079;-66
2020/12/01 02:42:12;;;;;;;47.60;20.77;;;3.30;97.70;;;;;;5055052;28;20052;-67
2020/12/01 02:44:38;;;;;;;49.27;20.40;;;3.40;97.70;;;;;;5064022;28;20025;-67
2020/12/01 02:47:05;;;;;;;48.65;20.75;;;3.30;97.70;;;;;;5040119;28;20298;-67
2020/12/01 02:49:32;;;;;;;46.10;20.67;;;3.30;97.70;;;;;;5047242;28;20040;-66
2020/12/01 02:51:58;;;;;;;45.20;20.10;;;3.40;97.70;;;;;;5044318;28;20067;-67
2020/12/01 02:54:23;;;;;;;45.65;19.73;;;3.40;97.80;;;;;;5053901;28;20386;-66
2020/12/01 02:56:49;;;;;;;43.35;19.45;;;3.40;97.80;;;;;;5050890;28;20096;-67
2020/12/01 02:59:15;;;;;;;43.47;18.90;;;3.40;97.80;;;;;;5063656;28;20025;-67
2020/12/01 03:01:41;;;;;;;43.45;18.52;;;3.40;97.80;;;;;;5049347;28;20064;-67
2020/12/01 03:04:07;;;;;;;41.38;18.55;;;3.40;97.80;;;;;;5060968;28;20061;-67
2020/12/01 03:06:33;;;;;;;41.25;18.88;;;3.40;97.80;;;;;;5053264;28;20057;-66
2020/12/01 03:08:58;;;;;;;39.65;17.27;;;3.40;97.80;;;;;;5061993;28;20464;-66
2020/12/01 03:11:24;;;;;;;38.70;18.95;;;3.40;97.80;;;;;;5049069;28;20034;-67
2020/12/01 03:13:50;;;;;;;41.53;17.60;;;3.40;97.80;;;;;;5045563;28;20497;-67
2020/12/01 03:16:16;;;;;;;41.13;19.05;;;3.40;97.80;;;;;;5045144;28;20025;-67
2020/12/01 03:18:46;;;;;;;37.35;17.70;;;3.40;97.80;;;;;;5052700;28;20402;-67
2020/12/01 03:21:14;;;;;;;41.78;17.67;;;3.40;97.80;;;;;;5058106;28;20081;-66
2020/12/01 03:23:41;;;;;;;37.20;16.27;;;3.40;97.80;;;;;;5054753;28;20063;-67
2020/12/01 03:26:07;;;;;;;39.78;17.92;;;3.50;97.80;;;;;;5041857;28;20600;-68
2020/12/01 03:28:33;;;;;;;37.90;17.33;;;3.40;97.80;;;;;;5092990;28;20033;-67
2020/12/01 03:30:59;;;;;;;43.25;18.00;;;3.50;97.80;;;;;;5051840;28;20363;-66
2020/12/01 03:33:25;;;;;;;38.17;17.55;;;3.40;97.80;;;;;;5056220;28;20039;-67
2020/12/01 03:35:52;;;;;;;34.38;15.82;;;3.40;97.90;;;;;;5056447;28;20024;-68
2020/12/01 03:38:18;;;;;;;31.80;15.40;;;3.40;97.90;;;;;;5043317;28;20047;-67
2020/12/01 03:40:44;;;;;;;35.42;16.25;;;3.40;97.90;;;;;;5053854;28;20020;-67
2020/12/01 03:43:10;;;;;;;35.42;16.50;;;3.40;97.90;;;;;;5057394;28;20039;-67
2020/12/01 03:45:36;;;;;;;34.13;15.15;;;3.50;97.90;;;;;;5043478;28;20029;-67
2020/12/01 03:48:01;;;;;;;33.95;16.17;;;3.40;97.90;;;;;;5048706;28;20063;-66
2020/12/01 03:50:28;;;;;;;32.60;15.05;;;3.50;97.90;;;;;;5082327;28;20415;-67
2020/12/01 03:52:53;;;;;;;32.92;15.65;;;3.50;97.90;;;;;;5047241;28;20263;-67
2020/12/01 03:55:22;;;;;;;37.35;16.23;;;3.50;97.90;;;;;;5050755;28;20250;-66
2020/12/01 03:57:47;;;;;;;39.28;15.65;;;3.50;97.90;;;;;;5046410;28;20033;-66
2020/12/01 04:00:22;;;;;;;37.95;15.57;;;3.50;97.90;;;;;;5051925;28;20028;-66
2020/12/01 04:02:48;;;;;;;36.80;17.13;;;3.40;97.90;;;;;;5051241;28;20181;-66
2020/12/01 04:05:15;;;;;;;42.60;16.13;;;3.50;97.90;;;;;;5062002;28;20139;-67
2020/12/01 04:07:41;;;;;;;31.50;15.70;;;3.50;97.90;;;;;;5053145;28;20115;-67
2020/12/01 04:10:07;;;;;;;31.25;14.73;;;3.50;97.90;;;;;;5063443;28;20032;-67
2020/12/01 04:12:33;;;;;;;35.42;15.77;;;3.50;98.00;;;;;;5043155;28;20161;-67
2020/12/01 04:15:00;;;;;;;34.58;15.68;;;3.50;98.00;;;;;;5052376;28;20031;-67
2020/12/01 04:17:27;;;;;;;37.20;16.05;;;3.50;97.90;;;;;;5053688;28;20094;-67
2020/12/01 04:19:52;;;;;;;36.75;16.42;;;3.50;98.00;;;;;;5057626;28;20020;-67
2020/12/01 04:22:18;;;;;;;36.50;15.35;;;3.50;98.00;;;;;;5055337;28;20029;-67
2020/12/01 04:24:44;;;;;;;33.95;15.55;;;3.50;98.00;;;;;;5045883;28;20496;-67
2020/12/01 04:27:11;;;;;;;37.00;15.93;;;3.60;98.00;;;;;;5040159;28;20056;-67
2020/12/01 04:29:38;;;;;;;31.35;15.82;;;3.50;98.00;;;;;;5052395;28;20455;-65
2020/12/01 04:32:04;;;;;;;32.13;15.75;;;3.60;98.00;;;;;;5056255;28;20108;-66
2020/12/01 04:34:30;;;;;;;36.40;16.45;;;3.50;98.00;;;;;;5054162;28;20043;-67
2020/12/01 04:36:56;;;;;;;37.97;15.50;;;3.60;98.00;;;;;;5056544;28;20028;-67
2020/12/01 04:39:22;;;;;;;39.65;15.57;;;3.60;98.00;;;;;;5054845;28;22686;-67
2020/12/01 04:41:47;;;;;;;38.10;16.23;;;3.60;98.00;;;;;;5048387;28;20106;-67
2020/12/01 04:44:27;;;;;;;37.03;15.52;;;3.60;98.00;;;;;;5052556;28;20060;-67
2020/12/01 04:46:54;;;;;;;40.15;16.23;;;3.60;98.00;;;;;;5059749;28;20032;-66
2020/12/01 04:49:31;;;;;;;40.50;16.52;;;3.60;98.00;;;;;;5048772;28;20391;-68
2020/12/01 04:52:28;;;;;;;37.70;16.33;;;3.60;98.00;;;;;;5060266;28;20032;-67
2020/12/01 04:55:21;;;;;;;35.72;16.52;;;3.60;98.00;;;;;;5048222;28;20017;-66
2020/12/01 04:58:04;;;;;;;43.30;16.20;;;3.60;98.00;;;;;;5049454;28;20511;-66
2020/12/01 05:00:45;;;;;;;39.25;17.17;;;3.60;98.10;;;;;;5055001;28;20067;-67
2020/12/01 05:03:25;;;;;;;39.40;17.83;;;3.60;98.10;;;;;;5053231;28;20105;-67
2020/12/01 05:08:49;;;;;;;38.30;17.50;;;3.60;98.10;;;;;;5053445;28;20081;-67
2020/12/01 05:11:23;;;;;;;42.72;17.42;;;3.60;98.10;;;;;;5053936;28;20051;-68
2020/12/01 05:13:59;;;;;;;45.58;17.42;;;3.60;98.10;;;;;;5038283;28;20036;-67
2020/12/01 05:16:54;;;;;;;44.85;17.80;;;3.60;98.10;;;;;;5035333;28;20156;-67
2020/12/01 05:19:34;;;;;;;41.38;17.95;;;3.60;98.10;;;;;;5034975;28;20477;-66
2020/12/01 05:22:00;;;;;;;43.70;18.35;;;3.60;98.10;;;;;;5033021;28;20120;-63
2020/12/01 05:24:45;;;;;;;53.65;18.50;;;3.60;98.10;;;;;;5032907;28;20398;-63
2020/12/01 05:27:18;;;;;;;44.55;18.05;;;3.60;98.10;;;;;;5043356;28;20157;-63
2020/12/01 05:29:44;;;;;;;53.10;17.63;;;3.60;98.10;;;;;;5051409;28;20021;-63
2020/12/01 05:32:10;;;;;;;47.75;18.73;;;3.60;98.10;;;;;;5060790;28;20073;-64
2020/12/01 05:34:35;;;;;;;43.80;18.48;;;3.60;98.10;;;;;;5051602;28;20318;-63
2020/12/01 05:37:05;;;;;;;45.72;18.90;;;3.60;98.10;;;;;;5065352;28;20472;-62
2020/12/01 05:39:34;;;;;;;50.13;19.33;;;3.60;98.10;;;;;;5054748;28;20380;-63
2020/12/01 05:42:03;;;;;;;44.70;19.73;;;3.60;98.10;;;;;;5066572;28;20382;-62
2020/12/01 05:44:31;;;;;;;46.95;19.90;;;3.60;98.20;;;;;;5047192;28;20036;-62
2020/12/01 05:47:27;;;;;;;54.45;20.17;;;3.60;98.20;;;;;;5047083;28;20150;-63
2020/12/01 05:50:11;;;;;;;46.28;19.13;;;3.60;98.10;;;;;;5048180;28;21067;-63
2020/12/01 05:53:03;;;;;;;54.88;21.23;;;3.60;98.20;;;;;;5062070;28;20419;-63
2020/12/01 05:55:30;;;;;;;64.00;22.08;;;3.60;98.20;;;;;;5050172;28;20043;-63
2020/12/01 05:58:03;;;;;;;49.13;20.42;;;3.60;98.20;;;;;;5058763;28;20021;-63
2020/12/01 06:00:32;;;;;;;52.60;21.13;;;3.60;98.20;;;;;;5056857;28;20025;-63
2020/12/01 06:03:16;;;;;;;51.30;21.55;;;3.60;98.20;;;;;;5060853;28;20456;-63
2020/12/01 06:05:46;;;;;;;59.67;20.00;;;3.60;98.20;;;;;;5048578;28;20056;-63
2020/12/01 06:08:43;;;;;;;58.33;21.08;;;3.60;98.20;;;;;;5053605;28;20465;-63
2020/12/01 06:11:17;;;;;;;52.75;19.80;;;3.60;98.20;;;;;;5045200;28;20044;-63
2020/12/01 06:13:47;;;;;;;59.63;20.45;;;3.60;98.20;;;;;;5054474;28;20056;-63
2020/12/01 06:16:34;;;;;;;64.90;20.92;;;3.60;98.20;;;;;;5049953;28;20662;-63
2020/12/01 06:19:14;;;;;;;60.38;21.35;;;3.60;98.20;;;;;;5058570;28;20043;-63
2020/12/01 06:22:05;;;;;;;60.67;20.50;;;3.60;98.20;;;;;;5045643;28;20056;-62
2020/12/01 06:24:59;;;;;;;56.42;20.13;;;3.60;98.20;;;;;;5053665;28;20036;-63
2020/12/01 06:27:58;;;;;;;63.67;22.17;;;3.60;98.20;;;;;;5045095;28;20029;-63
2020/12/01 06:30:58;;;;;;;61.33;20.38;;;3.70;98.20;;;;;;5050835;28;20441;-63
2020/12/01 06:33:46;;;;;;;64.40;22.73;;;3.60;98.20;;;;;;5059942;28;20076;-63
2020/12/01 06:36:45;;;;;;;54.20;20.92;;;3.60;98.20;;;;;;5066216;28;20265;-64
2020/12/01 06:39:17;;;;;;;58.75;22.30;;;3.60;98.20;;;;;;5058389;28;20024;-63
2020/12/01 06:41:53;;;;;;;57.38;22.45;;;3.60;98.20;;;;;;5058556;28;20036;-63
2020/12/01 06:44:23;;;;;;;58.80;22.63;;;3.60;98.20;;;;;;5054720;28;20052;-63
2020/12/01 06:46:53;;;;;;;58.47;21.27;;;3.60;98.20;;;;;;5060327;28;20048;-63
2020/12/01 06:49:31;;;;;;;59.58;21.65;;;3.60;98.20;;;;;;5056939;28;20081;-63
2020/12/01 06:52:02;;;;;;;56.00;22.15;;;3.60;98.20;;;;;;5060311;28;20033;-63
2020/12/01 06:54:28;;;;;;;64.80;22.95;;;3.60;98.20;;;;;;5048535;28;20487;-63
2020/12/01 06:57:34;;;;;;;58.22;21.73;;;3.60;98.20;;;;;;5060941;28;20029;-63
2020/12/01 07:00:00;;;;;;;58.60;22.10;;;3.60;98.20;;;;;;5058770;28;20403;-63
2020/12/01 07:02:52;;;;;;;59.00;21.48;;;3.60;98.20;;;;;;5043308;28;20450;-63
2020/12/01 07:05:32;;;;;;;52.72;20.75;;;3.60;98.20;;;;;;5048988;28;20476;-63
2020/12/01 07:07:58;;;;;;;55.55;21.65;;;3.60;98.20;;;;;;5062850;28;20028;-64
2020/12/01 07:10:30;;;;;;;56.03;21.38;;;3.60;98.20;;;;;;5056233;28;20355;-63
2020/12/01 07:13:13;;;;;;;52.25;21.90;;;3.60;98.20;;;;;;5076023;28;20037;-64
2020/12/01 07:15:51;;;;;;;52.05;21.92;;;3.70;98.20;;;;;;5050721;28;20044;-62
2020/12/01 07:18:29;;;;;;;54.03;21.13;;;3.60;98.20;;;;;;5054710;28;20546;-64
2020/12/01 07:21:23;;;;;;;51.83;20.98;;;3.70;98.20;;;;;;5053406;28;20166;-63
2020/12/01 07:23:56;;;;;;;52.58;20.27;;;3.70;98.20;;;;;;5055690;28;20159;-63
2020/12/01 07:26:47;;;;;;;58.25;19.70;;;3.70;98.20;;;;;;5049580;28;20035;-63
2020/12/01 07:29:38;;;;;;;57.72;21.10;;;3.70;98.20;;;;;;5044983;28;20150;-63
2020/12/01 07:32:10;;;;;;;51.88;20.58;;;3.70;98.20;;;;;;5057558;28;20025;-63
2020/12/01 07:34:37;;;;;;;52.75;21.77;;;3.70;98.20;;;;;;5055425;28;20076;-62
2020/12/01 07:37:17;;;;;;;52.65;20.63;;;3.70;98.20;;;;;;5054822;28;20056;-63
2020/12/01 07:39:55;;;;;;;58.47;21.75;;;3.70;98.20;;;;;;5044119;28;20529;-63
2020/12/01 07:42:23;;;;;;;47.05;19.15;;;3.70;98.20;;;;;;5044081;28;20040;-63
2020/12/01 07:44:48;;;;;;;45.33;20.88;;;3.70;98.20;;;;;;5045201;28;20082;-68
2020/12/01 07:47:21;;;;;;;40.88;20.00;;;3.70;98.10;;;;;;5053848;28;20490;-68
2020/12/01 07:49:58;;;;;;;46.00;20.70;;;3.60;98.10;;;;;;5042876;28;20037;-67
2020/12/01 07:52:39;;;;;;;48.25;19.88;;;3.70;98.10;;;;;;5050210;28;20444;-66
2020/12/01 07:55:14;;;;;;;46.00;21.35;;;3.70;98.10;;;;;;5053115;28;20120;-63
2020/12/01 07:57:40;;;;;;;47.28;20.92;;;3.70;98.10;;;;;;5051658;28;20094;-63
2020/12/01 08:00:05;;;;;;;47.40;20.55;;;3.70;98.10;;;;;;5064494;28;20475;-64
2020/12/01 08:02:32;;;;;;;50.95;21.92;;;3.70;98.10;;;;;;5060239;28;20043;-64
2020/12/01 08:05:10;;;;;;;54.67;21.33;;;3.70;98.10;;;;;;5054741;28;20036;-64
2020/12/01 08:07:35;;;;;;;58.47;22.27;;;3.70;98.10;;;;;;5056093;28;20020;-64
2020/12/01 08:10:06;;;;;;;53.28;22.38;;;3.70;98.10;;;;;;5050106;28;20025;-65
2020/12/01 08:12:40;;;;;;;47.88;21.27;;;3.80;98.10;;;;;;5037750;28;20728;-64
2020/12/01 08:15:17;;;;;;;48.03;20.70;;;3.80;98.10;;;;;;5059200;28;20453;-64
2020/12/01 08:17:43;;;;;;;46.13;21.17;;;3.80;98.10;;;;;;5062665;28;20452;-65
2020/12/01 08:20:13;;;;;;;41.25;18.65;;;3.80;98.10;;;;;;5049441;28;20096;-64
2020/12/01 08:22:41;;;;;;;46.45;20.95;;;3.80;98.10;;;;;;5049002;28;20447;-65
2020/12/01 08:25:13;;;;;;;53.30;20.50;;;3.80;98.10;;;;;;5056637;28;20076;-65
2020/12/01 08:27:44;;;;;;;49.03;19.65;;;3.80;98.00;;;;;;5051217;28;20600;-64
2020/12/01 08:30:26;;;;;;;;;;;3.80;98.00;;;;;;5051361;28;20035;-66
2020/12/01 08:32:57;;;;;;;46.08;20.08;;;3.80;98.00;;;;;;5048351;28;20349;-65
2020/12/01 08:35:48;;;;;;;44.58;19.98;;;3.80;98.00;;;;;;5060881;28;20252;-64
2020/12/01 08:38:21;;;;;;;47.83;20.10;;;3.80;98.00;;;;;;5048655;28;20104;-64
2020/12/01 08:41:16;;;;;;;40.40;19.45;;;3.80;98.00;;;;;;5046702;28;20104;-64
2020/12/01 08:44:04;;;;;;;44.38;19.00;;;3.80;98.00;;;;;;5050600;28;20021;-64
2020/12/01 08:46:31;;;;;;;39.63;18.63;;;3.80;98.00;;;;;;5055583;28;20545;-62
2020/12/01 08:49:06;;;;;;;45.15;19.63;;;3.80;98.00;;;;;;5060423;28;20466;-66
2020/12/01 08:51:48;;;;;;;43.83;19.92;;;3.90;98.00;;;;;;5059972;28;20039;-64
2020/12/01 08:54:21;;;;;;;45.38;19.63;;;3.90;98.00;;;;;;5050165;28;20106;-64
2020/12/01 08:56:46;;;;;;;41.90;18.10;;;3.90;97.90;;;;;;5056024;28;20024;-64
2020/12/01 08:59:18;;;;;;;40.03;19.00;;;3.90;97.90;;;;;;5056623;28;20215;-65
2020/12/01 09:01:44;;;;;;;42.10;19.02;;;3.90;97.90;;;;;;5083671;28;20487;-63
2020/12/01 09:04:27;;;;;;;39.20;18.90;;;4.00;97.90;;;;;;5060002;28;20029;-64
2020/12/01 09:06:56;;;;;;;39.78;18.13;;;4.00;97.90;;;;;;5054951;28;20097;-64
2020/12/01 09:09:27;;;;;;;36.83;18.02;;;4.00;97.90;;;;;;5055069;28;20033;-63
2020/12/01 09:17:26;;;;;;;34.65;16.98;;;4.10;97.80;;;;;;5058865;28;20017;-64
2020/12/01 09:22:30;;;;;;;27.30;15.80;;;4.10;97.80;;;;;;5047471;28;20033;-63
2020/12/01 09:25:10;;;;;;;28.70;14.93;;;4.10;97.70;;;;;;5047319;28;20048;-63
2020/12/01 09:27:36;;;;;;;31.17;16.27;;;4.00;97.60;;;;;;5054814;28;20354;-64
2020/12/01 09:30:03;;;;;;;29.45;16.25;;;4.10;97.70;;;;;;5064770;28;20278;-64
2020/12/01 09:32:29;;;;;;;28.80;15.18;;;4.10;97.70;;;;;;5060425;28;20121;-64
2020/12/01 09:34:55;;;;;;;27.40;15.13;;;4.10;97.60;;;;;;5050328;28;20139;-64
2020/12/01 09:37:21;;;;;;;28.73;15.25;;;4.00;97.60;;;;;;5046769;28;20044;-64
2020/12/01 09:39:47;;;;;;;28.35;14.32;;;4.10;97.60;;;;;;5066765;28;20028;-63
2020/12/01 09:47:08;;;;;;;30.10;15.88;;;4.10;97.60;;;;;;5062839;28;20105;-64
2020/12/01 09:49:34;;;;;;;29.23;14.90;;;4.10;97.60;;;;;;5056624;28;20052;-65
2020/12/01 09:52:09;;;;;;;31.27;14.07;;;4.10;97.60;;;;;;5062389;28;20052;-64
2020/12/01 09:54:48;;;;;;;27.75;13.70;;;4.20;97.60;;;;;;5064161;28;20071;-64
2020/12/01 09:57:39;;;;;;;34.13;15.57;;;4.20;97.50;;;;;;5048677;28;20498;-64
2020/12/01 10:12:52;;;;;;;23.95;13.18;;;4.30;97.40;;;;;;5047177;28;20070;-63
2020/12/01 10:16:35;;;;;;;23.00;11.98;;;4.30;97.40;;;;;;5049278;28;20013;-63
2020/12/01 10:34:49;;;;;;;20.40;11.38;;;4.40;97.20;;;;;;5066362;28;20032;-63
2020/12/01 10:37:15;;;;;;;24.58;12.07;;;4.50;97.20;;;;;;5045392;28;20028;-63
2020/12/01 10:39:41;;;;;;;22.58;12.68;;;4.50;97.10;;;;;;5053762;28;20029;-63
2020/12/01 10:42:08;;;;;;;24.73;12.85;;;4.60;97.10;;;;;;5060145;28;20028;-63
2020/12/01 10:44:34;;;;;;;20.13;11.65;;;4.60;97.10;;;;;;5088464;28;20146;-63
2020/12/01 10:46:59;;;;;;;24.60;12.52;;;4.50;96.90;;;;;;5047524;28;20134;-63
2020/12/01 10:49:25;;;;;;;21.42;12.20;;;4.60;97.00;;;;;;5059684;28;20349;-63
2020/12/01 10:51:51;;;;;;;21.55;13.02;;;4.60;97.00;;;;;;5061762;28;20029;-63
2020/12/01 10:54:17;;;;;;;21.60;12.20;;;4.50;96.90;;;;;;5047001;28;20494;-63
2020/12/01 10:56:47;;;;;;;20.05;11.70;;;4.60;96.90;;;;;;5048455;28;20020;-63
2020/12/01 10:59:13;;;;;;;23.75;12.65;;;4.60;96.90;;;;;;5080025;28;20396;-63
2020/12/01 11:01:38;;;;;;;24.20;12.38;;;4.60;97.00;;;;;;5054326;28;20074;-63
2020/12/01 11:04:04;;;;;;;20.73;12.32;;;4.60;96.90;;;;;;5046679;28;20139;-64
2020/12/01 11:06:31;;;;;;;18.42;11.15;;;4.70;97.00;;;;;;5051695;28;20051;-63
2020/12/01 11:08:57;;;;;;;23.83;12.45;;;4.50;96.80;;;;;;5051375;28;20491;-66
2020/12/01 11:11:22;;;;;;;19.35;11.60;;;4.60;96.90;;;;;;5066288;28;20060;-66
2020/12/01 11:13:48;;;;;;;19.48;11.07;;;4.60;96.90;;;;;;5057522;28;20027;-66
2020/12/01 11:16:14;;;;;;;20.50;11.98;;;4.60;96.90;;;;;;5056387;28;20102;-66
2020/12/01 11:18:40;;;;;;;19.02;11.75;;;4.60;96.90;;;;;;5082360;28;20017;-67
2020/12/01 11:21:06;;;;;;;21.05;11.00;;;4.70;97.00;;;;;;5044545;28;20044;-66
2020/12/01 11:23:32;;;;;;;21.30;12.00;;;4.70;97.00;;;;;;5054470;28;20039;-66
2020/12/01 11:25:58;;;;;;;18.25;10.00;;;4.60;96.90;;;;;;5058158;28;20086;-66
2020/12/01 11:28:24;;;;;;;19.65;11.00;;;4.60;96.90;;;;;;5046230;28;20029;-66
2020/12/01 11:30:50;;;;;;;19.50;11.10;;;4.50;96.90;;;;;;5050411;28;20457;-67
2020/12/01 11:33:16;;;;;;;16.95;10.25;;;4.50;96.90;;;;;;5053659;28;20216;-67
2020/12/01 11:35:42;;;;;;;18.20;11.15;;;4.60;97.10;;;;;;5061439;28;20115;-66
2020/12/01 11:38:08;;;;;;;18.38;10.57;;;4.70;97.10;;;;;;5050208;28;20578;-66
2020/12/01 11:40:33;;;;;;;18.60;10.90;;;4.60;96.90;;;;;;5063013;28;20258;-66
2020/12/01 11:42:59;;;;;;;17.70;10.02;;;4.70;97.00;;;;;;5056896;28;20106;-64
2020/12/01 11:45:26;;;;;;;15.15;9.80;;;4.80;96.80;;;;;;5061684;28;20032;-65
2020/12/01 11:47:52;;;;;;;16.33;9.68;;;4.90;96.90;;;;;;5051825;28;20029;-64
2020/12/01 11:50:18;;;;;;;17.17;9.60;;;4.80;96.70;;;;;;5051012;28;20024;-64
2020/12/01 11:52:44;;;;;;;16.17;8.98;;;4.80;96.60;;;;;;5046913;28;20122;-64
2020/12/01 11:55:10;;;;;;;14.57;9.57;;;4.90;96.50;;;;;;5051900;28;20076;-64
2020/12/01 11:57:35;;;;;;;14.23;9.05;;;4.80;96.30;;;;;;5055409;28;20483;-64
2020/12/01 12:00:01;;;;;;;13.70;8.70;;;4.80;96.30;;;;;;5044949;28;20099;-64
2020/12/01 12:02:27;;;;;;;15.68;9.45;;;4.90;96.30;;;;;;5045454;28;20223;-64
2020/12/01 12:04:53;;;;;;;15.45;9.57;;;4.80;96.20;;;;;;5061222;28;20023;-64
2020/12/01 12:07:19;;;;;;;16.25;9.77;;;4.80;96.00;;;;;;5057424;28;20024;-64
2020/12/01 12:09:45;;;;;;;16.02;8.82;;;4.80;96.20;;;;;;5061976;28;20402;-64
2020/12/01 12:12:10;;;;;;;16.00;9.55;;;4.80;96.10;;;;;;5053173;28;20036;-64
2020/12/01 12:14:36;;;;;;;18.73;10.13;;;4.70;96.20;;;;;;5047576;28;20062;-64
2020/12/01 12:17:01;;;;;;;20.63;10.82;;;4.70;96.30;;;;;;5064537;28;20444;-64
2020/12/01 12:19:27;;;;;;;19.27;11.15;;;4.80;96.40;;;;;;5051492;28;20466;-64
2020/12/01 12:21:53;;;;;;;21.23;11.55;;;4.80;96.60;;;;;;5061211;28;20025;-64
2020/12/01 12:24:18;;;;;;;21.98;12.25;;;4.80;96.70;;;;;;5045898;28;20106;-64
2020/12/01 12:26:44;;;;;;;23.25;12.75;;;4.70;96.60;;;;;;5044368;28;20025;-64
2020/12/01 12:29:09;;;;;;;25.02;13.07;;;4.70;96.70;;;;;;5056558;28;20075;-64
2020/12/01 12:31:35;;;;;;;25.77;13.98;;;4.80;96.80;;;;;;5061642;28;20060;-64
2020/12/01 12:34:01;;;;;;;28.17;13.95;;;4.70;96.80;;;;;;5047295;28;20443;-64
2020/12/01 12:36:27;;;;;;;33.10;14.50;;;4.70;96.80;;;;;;5044011;28;20098;-63
2020/12/01 12:38:55;;;;;;;28.88;14.45;;;4.60;96.90;;;;;;5056312;28;20025;-64
2020/12/01 12:41:20;;;;;;;28.63;14.45;;;4.60;96.90;;;;;;5050381;28;20057;-64
2020/12/01 12:43:46;;;;;;;34.63;15.57;;;4.60;97.00;;;;;;5043084;28;20419;-63
2020/12/01 12:46:11;;;;;;;32.28;15.73;;;4.60;97.00;;;;;;5044755;28;20440;-65
2020/12/01 12:48:37;;;;;;;31.05;14.50;;;4.50;97.00;;;;;;5044984;28;20028;-64
2020/12/01 12:51:03;;;;;;;31.10;16.23;;;4.50;97.00;;;;;;5053975;28;20340;-63
2020/12/01 12:53:29;;;;;;;31.10;15.82;;;4.60;97.20;;;;;;5057957;28;20069;-63
2020/12/01 12:55:54;;;;;;;34.40;14.82;;;4.60;97.20;;;;;;5064424;28;20080;-63
2020/12/01 12:58:20;;;;;;;33.20;15.77;;;4.60;97.10;;;;;;5049995;28;20032;-63
2020/12/01 13:00:46;;;;;;;38.30;15.98;;;4.50;97.20;;;;;;5064039;28;20094;-63
2020/12/01 13:03:11;;;;;;;29.40;14.77;;;4.60;97.20;;;;;;5056092;28;20174;-63
2020/12/01 13:05:37;;;;;;;25.95;13.43;;;4.50;97.20;;;;;;5053271;28;20112;-63
2020/12/01 13:08:05;;;;;;;27.95;14.48;;;4.40;97.20;;;;;;5066124;28;20359;-63
2020/12/01 13:10:31;;;;;;;28.70;13.48;;;4.40;97.20;;;;;;5059912;28;20031;-63
2020/12/01 13:12:57;;;;;;;26.13;13.50;;;4.50;97.20;;;;;;5062152;28;20389;-63
2020/12/01 13:15:23;;;;;;;25.30;12.77;;;4.40;97.20;;;;;;5051984;28;20110;-62
2020/12/01 13:17:49;;;;;;;28.70;15.15;;;4.30;97.20;;;;;;5057680;28;20091;-63
2020/12/01 13:20:18;;;;;;;27.92;14.50;;;4.30;97.20;;;;;;5062046;28;20016;-63
2020/12/01 13:22:44;;;;;;;30.17;15.18;;;4.40;97.20;;;;;;5062820;28;20111;-63
2020/12/01 13:25:10;;;;;;;29.00;14.63;;;4.30;97.10;;;;;;5065863;28;20174;-63
2020/12/01 13:27:36;;;;;;;35.35;16.45;;;4.40;97.20;;;;;;5050728;28;20166;-63
2020/12/01 13:30:03;;;;;;;33.90;16.60;;;4.30;97.20;;;;;;5047926;28;20452;-63
2020/12/01 13:32:29;;;;;;;34.47;16.35;;;4.40;97.20;;;;;;5065263;28;20058;-63
2020/12/01 13:34:54;;;;;;;30.48;15.88;;;4.30;97.20;;;;;;5067360;28;20017;-63
2020/12/01 13:37:20;;;;;;;32.10;16.45;;;4.40;97.20;;;;;;5050806;28;20040;-63
2020/12/01 13:39:46;;;;;;;34.80;16.13;;;4.40;97.20;;;;;;5051673;28;20111;-63